sensor_id;sensor_type;location;lat;lon;timestamp;pressure;altitude;pressure_sealevel;temperature;humidity
6974;BME280;3527;52.376;8.990;2023-07-31T00:00:54;100648.94;;;16.29;100.00
6974;BME280;3527;52.376;8.990;2023-07-31T00:03:22;100649.03;;;16.18;100.00
6974;BME280;3527;52.376;8.990;2023-07-31T00:05:50;100657.88;;;16.20;100.00
6974;BME280;3527;52.376;8.990;2023-07-31T00:08:18;100663.88;;;16.26;100.00
6974;BME280;3527;52.376;8.990;2023-07-31T00:10:45;100660.63;;;16.27;100.00
6974;BME280;3527;52.376;8.990;2023-07-31T00:13:12;100660.66;;;16.24;100.00
6974;BME280;3527;52.376;8.990;2023-07-31T00:16:00;100659.03;;;16.26;100.00
6974;BME280;3527;52.376;8.990;2023-07-31T00:18:29;100667.03;;;16.31;100.00
6974;BME280;3527;52.376;8.990;2023-07-31T00:20:59;100666.25;;;16.31;100.00
6974;BME280;3527;52.376;8.990;2023-07-31T00:23:29;100663.00;;;16.32;100.00
6974;BME280;3527;52.376;8.990;2023-07-31T00:25:56;100677.47;;;16.38;100.00
6974;BME280;3527;52.376;8.990;2023-07-31T00:28:24;100670.25;;;16.33;100.00
6974;BME280;3527;52.376;8.990;2023-07-31T00:30:51;100669.41;;;16.36;100.00
6974;BME280;3527;52.376;8.990;2023-07-31T00:33:19;100673.47;;;16.32;100.00
6974;BME280;3527;52.376;8.990;2023-07-31T00:35:48;100670.28;;;16.30;100.00
6974;BME280;3527;52.376;8.990;2023-07-31T00:38:16;100676.31;;;16.32;100.00
6974;BME280;3527;52.376;8.990;2023-07-31T00:40:47;100661.09;;;16.22;100.00
6974;BME280;3527;52.376;8.990;2023-07-31T00:43:15;100661.41;;;16.31;100.00
6974;BME280;3527;52.376;8.990;2023-07-31T00:45:44;100659.75;;;16.37;100.00
6974;BME280;3527;52.376;8.990;2023-07-31T00:48:12;100654.19;;;16.30;100.00
6974;BME280;3527;52.376;8.990;2023-07-31T00:50:40;100650.97;;;16.28;100.00
6974;BME280;3527;52.376;8.990;2023-07-31T00:53:10;100646.16;;;16.25;100.00
6974;BME280;3527;52.376;8.990;2023-07-31T00:55:38;100636.50;;;16.26;100.00
6974;BME280;3527;52.376;8.990;2023-07-31T00:58:13;100640.97;;;16.20;100.00
6974;BME280;3527;52.376;8.990;2023-07-31T01:00:57;100640.59;;;16.18;100.00
6974;BME280;3527;52.376;8.990;2023-07-31T01:03:25;100635.38;;;16.17;100.00
6974;BME280;3527;52.376;8.990;2023-07-31T01:08:43;100636.09;;;16.24;100.00
6974;BME280;3527;52.376;8.990;2023-07-31T01:11:27;100634.16;;;16.18;100.00
6974;BME280;3527;52.376;8.990;2023-07-31T01:13:57;100628.50;;;16.21;100.00
6974;BME280;3527;52.376;8.990;2023-07-31T01:16:27;100618.84;;;16.19;100.00
6974;BME280;3527;52.376;8.990;2023-07-31T01:18:55;100625.69;;;16.18;100.00
6974;BME280;3527;52.376;8.990;2023-07-31T01:26:56;100635.72;;;16.22;100.00
6974;BME280;3527;52.376;8.990;2023-07-31T01:29:49;100631.75;;;16.16;100.00
6974;BME280;3527;52.376;8.990;2023-07-31T01:32:24;100633.28;;;16.24;100.00
6974;BME280;3527;52.376;8.990;2023-07-31T01:34:57;100633.31;;;16.21;100.00
6974;BME280;3527;52.376;8.990;2023-07-31T01:37:29;100619.66;;;16.16;100.00
6974;BME280;3527;52.376;8.990;2023-07-31T01:39:57;100635.69;;;16.26;100.00
6974;BME280;3527;52.376;8.990;2023-07-31T01:42:25;100628.88;;;16.23;100.00
6974;BME280;3527;52.376;8.990;2023-07-31T01:44:54;100631.75;;;16.16;100.00
6974;BME280;3527;52.376;8.990;2023-07-31T01:47:22;100624.53;;;16.08;100.00
6974;BME280;3527;52.376;8.990;2023-07-31T01:49:56;100619.66;;;16.19;100.00
6974;BME280;3527;52.376;8.990;2023-07-31T01:52:24;100619.25;;;16.21;100.00
6974;BME280;3527;52.376;8.990;2023-07-31T01:54:53;100613.19;;;16.22;100.00
6974;BME280;3527;52.376;8.990;2023-07-31T01:57:23;100610.41;;;16.19;100.00
6974;BME280;3527;52.376;8.990;2023-07-31T01:59:51;100614.03;;;16.19;100.00
6974;BME280;3527;52.376;8.990;2023-07-31T02:02:21;100614.03;;;16.19;100.00
6974;BME280;3527;52.376;8.990;2023-07-31T02:04:51;100607.25;;;16.06;100.00
6974;BME280;3527;52.376;8.990;2023-07-31T02:07:18;100614.84;;;16.16;100.00
6974;BME280;3527;52.376;8.990;2023-07-31T02:09:46;100605.63;;;16.08;100.00
6974;BME280;3527;52.376;8.990;2023-07-31T02:12:18;100595.13;;;16.16;100.00
6974;BME280;3527;52.376;8.990;2023-07-31T02:14:45;100599.56;;;16.17;100.00
6974;BME280;3527;52.376;8.990;2023-07-31T02:17:15;100595.16;;;16.09;100.00
6974;BME280;3527;52.376;8.990;2023-07-31T02:19:45;100597.56;;;16.11;100.00
6974;BME280;3527;52.376;8.990;2023-07-31T02:22:12;100596.38;;;16.08;100.00
6974;BME280;3527;52.376;8.990;2023-07-31T02:24:40;100594.84;;;16.00;100.00
6974;BME280;3527;52.376;8.990;2023-07-31T02:27:07;100597.25;;;15.98;100.00
6974;BME280;3527;52.376;8.990;2023-07-31T02:29:35;100598.06;;;15.98;100.00
6974;BME280;3527;52.376;8.990;2023-07-31T02:32:03;100598.91;;;15.92;100.00
6974;BME280;3527;52.376;8.990;2023-07-31T02:34:31;100590.06;;;15.93;100.00
6974;BME280;3527;52.376;8.990;2023-07-31T02:37:00;100591.28;;;15.92;100.00
6974;BME280;3527;52.376;8.990;2023-07-31T02:39:27;100592.78;;;16.04;100.00
6974;BME280;3527;52.376;8.990;2023-07-31T02:41:57;100597.28;;;15.94;100.00
6974;BME280;3527;52.376;8.990;2023-07-31T02:44:25;100586.81;;;15.95;100.00
6974;BME280;3527;52.376;8.990;2023-07-31T02:46:52;100581.22;;;15.88;100.00
6974;BME280;3527;52.376;8.990;2023-07-31T02:49:20;100588.44;;;15.96;100.00
6974;BME280;3527;52.376;8.990;2023-07-31T02:51:49;100586.03;;;15.94;100.00
6974;BME280;3527;52.376;8.990;2023-07-31T02:54:16;100589.66;;;15.88;100.00
6974;BME280;3527;52.376;8.990;2023-07-31T02:56:43;100584.81;;;15.95;100.00
6974;BME280;3527;52.376;8.990;2023-07-31T02:59:11;100588.47;;;15.85;100.00
6974;BME280;3527;52.376;8.990;2023-07-31T03:01:38;100587.72;;;15.77;100.00
6974;BME280;3527;52.376;8.990;2023-07-31T03:04:07;100586.91;;;15.81;100.00
6974;BME280;3527;52.376;8.990;2023-07-31T03:06:42;100589.72;;;15.81;100.00
6974;BME280;3527;52.376;8.990;2023-07-31T03:09:10;100582.44;;;15.87;100.00
6974;BME280;3527;52.376;8.990;2023-07-31T03:11:37;100575.63;;;15.81;100.00
6974;BME280;3527;52.376;8.990;2023-07-31T03:14:05;100580.50;;;15.76;100.00
6974;BME280;3527;52.376;8.990;2023-07-31T03:16:33;100572.50;;;15.68;100.00
6974;BME280;3527;52.376;8.990;2023-07-31T03:19:02;100576.56;;;15.63;100.00
6974;BME280;3527;52.376;8.990;2023-07-31T03:21:30;100578.91;;;15.75;100.00
6974;BME280;3527;52.376;8.990;2023-07-31T03:23:57;100580.53;;;15.69;100.00
6974;BME280;3527;52.376;8.990;2023-07-31T03:26:25;100578.59;;;15.63;100.00
6974;BME280;3527;52.376;8.990;2023-07-31T03:28:54;100578.56;;;15.56;100.00
6974;BME280;3527;52.376;8.990;2023-07-31T03:31:21;100575.38;;;15.50;100.00
6974;BME280;3527;52.376;8.990;2023-07-31T03:33:48;100577.41;;;15.50;100.00
6974;BME280;3527;52.376;8.990;2023-07-31T03:36:15;100574.16;;;15.51;100.00
6974;BME280;3527;52.376;8.990;2023-07-31T03:38:43;100580.19;;;15.53;100.00
6974;BME280;3527;52.376;8.990;2023-07-31T03:41:12;100573.41;;;15.47;100.00
6974;BME280;3527;52.376;8.990;2023-07-31T03:43:41;100574.22;;;15.40;100.00
6974;BME280;3527;52.376;8.990;2023-07-31T03:46:09;100576.25;;;15.40;100.00
6974;BME280;3527;52.376;8.990;2023-07-31T03:48:36;100576.69;;;15.35;100.00
6974;BME280;3527;52.376;8.990;2023-07-31T03:51:04;100583.09;;;15.39;100.00
6974;BME280;3527;52.376;8.990;2023-07-31T03:53:56;100585.91;;;15.32;100.00
6974;BME280;3527;52.376;8.990;2023-07-31T03:56:24;100579.88;;;15.30;100.00
6974;BME280;3527;52.376;8.990;2023-07-31T03:58:51;100579.06;;;15.33;100.00
6974;BME280;3527;52.376;8.990;2023-07-31T04:01:20;100576.72;;;15.21;100.00
6974;BME280;3527;52.376;8.990;2023-07-31T04:03:50;100573.47;;;15.26;100.00
6974;BME280;3527;52.376;8.990;2023-07-31T04:06:17;100568.69;;;15.23;100.00
6974;BME280;3527;52.376;8.990;2023-07-31T04:08:56;100572.69;;;15.25;100.00
6974;BME280;3527;52.376;8.990;2023-07-31T04:11:23;100570.28;;;15.24;100.00
6974;BME280;3527;52.376;8.990;2023-07-31T04:13:53;100559.03;;;15.24;100.00
6974;BME280;3527;52.376;8.990;2023-07-31T04:16:21;100558.28;;;15.12;100.00
6974;BME280;3527;52.376;8.990;2023-07-31T04:19:08;100558.66;;;15.14;100.00
6974;BME280;3527;52.376;8.990;2023-07-31T04:21:49;100563.06;;;15.23;100.00
6974;BME280;3527;52.376;8.990;2023-07-31T04:24:48;100561.03;;;15.27;100.00
6974;BME280;3527;52.376;8.990;2023-07-31T04:27:38;100571.50;;;15.23;100.00
6974;BME280;3527;52.376;8.990;2023-07-31T04:30:25;100567.03;;;15.36;100.00
6974;BME280;3527;52.376;8.990;2023-07-31T04:32:53;100569.41;;;15.34;100.00
6974;BME280;3527;52.376;8.990;2023-07-31T04:35:41;100557.00;;;15.28;100.00
6974;BME280;3527;52.376;8.990;2023-07-31T04:38:09;100561.03;;;15.27;100.00
6974;BME280;3527;52.376;8.990;2023-07-31T04:40:56;100557.41;;;15.26;100.00
6974;BME280;3527;52.376;8.990;2023-07-31T04:43:43;100557.38;;;15.30;100.00
6974;BME280;3527;52.376;8.990;2023-07-31T04:46:11;100559.38;;;15.33;100.00
6974;BME280;3527;52.376;8.990;2023-07-31T04:48:59;100564.63;;;15.31;100.00
6974;BME280;3527;52.376;8.990;2023-07-31T04:51:27;100568.22;;;15.31;100.00
6974;BME280;3527;52.376;8.990;2023-07-31T04:53:56;100567.03;;;15.36;100.00
6974;BME280;3527;52.376;8.990;2023-07-31T04:56:27;100567.03;;;15.36;100.00
6974;BME280;3527;52.376;8.990;2023-07-31T04:58:59;100563.78;;;15.41;100.00
6974;BME280;3527;52.376;8.990;2023-07-31T05:01:26;100565.41;;;15.31;100.00
6974;BME280;3527;52.376;8.990;2023-07-31T05:04:05;100568.19;;;15.42;100.00
6974;BME280;3527;52.376;8.990;2023-07-31T05:06:33;100566.94;;;15.50;100.00
6974;BME280;3527;52.376;8.990;2023-07-31T05:09:02;100579.78;;;15.58;100.00
6974;BME280;3527;52.376;8.990;2023-07-31T05:11:30;100570.94;;;15.63;100.00
6974;BME280;3527;52.376;8.990;2023-07-31T05:13:58;100572.09;;;15.69;100.00
6974;BME280;3527;52.376;8.990;2023-07-31T05:16:34;100573.59;;;15.85;100.00
6974;BME280;3527;52.376;8.990;2023-07-31T05:19:04;100570.78;;;15.85;100.00
6974;BME280;3527;52.376;8.990;2023-07-31T05:21:31;100561.94;;;15.83;100.00
6974;BME280;3527;52.376;8.990;2023-07-31T05:23:59;100565.16;;;15.85;100.00
6974;BME280;3527;52.376;8.990;2023-07-31T05:26:32;100572.31;;;16.00;100.00
6974;BME280;3527;52.376;8.990;2023-07-31T05:28:59;100574.72;;;15.98;100.00
6974;BME280;3527;52.376;8.990;2023-07-31T05:31:27;100582.69;;;16.10;100.00
6974;BME280;3527;52.376;8.990;2023-07-31T05:33:55;100575.88;;;16.04;100.00
6974;BME280;3527;52.376;8.990;2023-07-31T05:36:22;100575.50;;;16.02;100.00
6974;BME280;3527;52.376;8.990;2023-07-31T05:38:50;100572.31;;;15.96;100.00
6974;BME280;3527;52.376;8.990;2023-07-31T05:41:18;100581.94;;;16.02;100.00
6974;BME280;3527;52.376;8.990;2023-07-31T05:43:46;100585.84;;;16.16;100.00
6974;BME280;3527;52.376;8.990;2023-07-31T05:46:14;100591.09;;;16.17;100.00
6974;BME280;3527;52.376;8.990;2023-07-31T05:48:41;100580.59;;;16.21;100.00
6974;BME280;3527;52.376;8.990;2023-07-31T05:51:18;100585.00;;;16.22;100.00
6974;BME280;3527;52.376;8.990;2023-07-31T05:53:45;100572.63;;;16.09;100.00
6974;BME280;3527;52.376;8.990;2023-07-31T05:56:15;100582.66;;;16.17;100.00
6974;BME280;3527;52.376;8.990;2023-07-31T05:58:42;100590.69;;;16.15;100.00
6974;BME280;3527;52.376;8.990;2023-07-31T06:01:10;100575.00;;;16.14;100.00
6974;BME280;3527;52.376;8.990;2023-07-31T06:03:38;100576.22;;;16.13;100.00
6974;BME280;3527;52.376;8.990;2023-07-31T06:06:06;100574.28;;;16.03;100.00
6974;BME280;3527;52.376;8.990;2023-07-31T06:08:36;100560.22;;;16.03;100.00
6974;BME280;3527;52.376;8.990;2023-07-31T06:11:03;100568.22;;;16.08;100.00
6974;BME280;3527;52.376;8.990;2023-07-31T06:13:44;100572.28;;;16.03;100.00
6974;BME280;3527;52.376;8.990;2023-07-31T06:16:11;100576.72;;;16.01;100.00
6974;BME280;3527;52.376;8.990;2023-07-31T06:18:38;100578.31;;;16.02;100.00
6974;BME280;3527;52.376;8.990;2023-07-31T06:21:05;100577.94;;;16.00;100.00
6974;BME280;3527;52.376;8.990;2023-07-31T06:23:33;100580.38;;;15.98;100.00
6974;BME280;3527;52.376;8.990;2023-07-31T06:26:00;100570.66;;;16.02;100.00
6974;BME280;3527;52.376;8.990;2023-07-31T06:28:28;100574.69;;;16.05;100.00
6974;BME280;3527;52.376;8.990;2023-07-31T06:31:05;100583.16;;;16.01;100.00
6974;BME280;3527;52.376;8.990;2023-07-31T06:33:34;100571.91;;;15.98;100.00
6974;BME280;3527;52.376;8.990;2023-07-31T06:36:01;100577.09;;;16.03;100.00
6974;BME280;3527;52.376;8.990;2023-07-31T06:38:28;100580.25;;;16.12;100.00
6974;BME280;3527;52.376;8.990;2023-07-31T06:40:57;100570.63;;;16.10;100.00
6974;BME280;3527;52.376;8.990;2023-07-31T06:43:24;100566.13;;;16.19;100.00
6974;BME280;3527;52.376;8.990;2023-07-31T06:45:54;100561.03;;;16.00;100.00
6974;BME280;3527;52.376;8.990;2023-07-31T06:48:22;100553.75;;;16.06;100.00
6974;BME280;3527;52.376;8.990;2023-07-31T06:50:49;100562.13;;;16.13;100.00
6974;BME280;3527;52.376;8.990;2023-07-31T06:53:17;100575.78;;;16.18;100.00
6974;BME280;3527;52.376;8.990;2023-07-31T06:55:44;100576.16;;;16.24;100.00
6974;BME280;3527;52.376;8.990;2023-07-31T06:58:12;100568.03;;;16.29;100.00
6974;BME280;3527;52.376;8.990;2023-07-31T07:00:39;100555.97;;;16.29;100.00
6974;BME280;3527;52.376;8.990;2023-07-31T07:03:06;100562.34;;;16.36;100.00
6974;BME280;3527;52.376;8.990;2023-07-31T07:05:33;100563.56;;;16.35;100.00
6974;BME280;3527;52.376;8.990;2023-07-31T07:08:04;100571.75;;;16.64;100.00
6974;BME280;3527;52.376;8.990;2023-07-31T07:10:31;100560.47;;;16.64;100.00
6974;BME280;3527;52.376;8.990;2023-07-31T07:13:10;100557.19;;;16.76;100.00
6974;BME280;3527;52.376;8.990;2023-07-31T07:15:37;100545.09;;;16.76;100.00
6974;BME280;3527;52.376;8.990;2023-07-31T07:18:04;100543.38;;;16.85;100.00
6974;BME280;3527;52.376;8.990;2023-07-31T07:20:31;100527.25;;;16.86;100.00
6974;BME280;3527;52.376;8.990;2023-07-31T07:22:58;100519.97;;;16.88;100.00
6974;BME280;3527;52.376;8.990;2023-07-31T07:25:25;100525.41;;;17.06;100.00
6974;BME280;3527;52.376;8.990;2023-07-31T07:33:04;100523.75;;;17.09;100.00
6974;BME280;3527;52.376;8.990;2023-07-31T07:35:33;100517.22;;;17.15;100.00
6974;BME280;3527;52.376;8.990;2023-07-31T07:38:04;100517.59;;;17.48;100.00
6974;BME280;3527;52.376;8.990;2023-07-31T07:40:41;100502.84;;;17.64;100.00
6974;BME280;3527;52.376;8.990;2023-07-31T07:43:10;100501.19;;;17.66;100.00
6974;BME280;3527;52.376;8.990;2023-07-31T07:45:37;100501.44;;;18.02;100.00
6974;BME280;3527;52.376;8.990;2023-07-31T07:48:04;100502.03;;;18.17;100.00
6974;BME280;3527;52.376;8.990;2023-07-31T07:50:32;100493.59;;;18.37;100.00
6974;BME280;3527;52.376;8.990;2023-07-31T07:52:59;100498.97;;;18.51;100.00
6974;BME280;3527;52.376;8.990;2023-07-31T07:55:27;100479.84;;;18.39;100.00
6974;BME280;3527;52.376;8.990;2023-07-31T07:58:39;100476.53;;;18.20;100.00
6974;BME280;3527;52.376;8.990;2023-07-31T08:01:18;100476.13;;;18.65;100.00
6974;BME280;3527;52.376;8.990;2023-07-31T08:03:45;100464.34;;;18.47;100.00
6974;BME280;3527;52.376;8.990;2023-07-31T08:06:19;100458.63;;;18.27;100.00
6974;BME280;3527;52.376;8.990;2023-07-31T08:08:54;100454.06;;;18.13;100.00
6974;BME280;3527;52.376;8.990;2023-07-31T08:12:07;100452.75;;;17.95;100.00
6974;BME280;3527;52.376;8.990;2023-07-31T08:14:37;100447.66;;;18.09;100.00
6974;BME280;3527;52.376;8.990;2023-07-31T08:17:08;100442.06;;;18.06;100.00
6974;BME280;3527;52.376;8.990;2023-07-31T08:19:39;100422.19;;;17.89;100.00
6974;BME280;3527;52.376;8.990;2023-07-31T08:22:07;100416.09;;;17.91;100.00
6974;BME280;3527;52.376;8.990;2023-07-31T08:24:38;100422.91;;;17.70;100.00
6974;BME280;3527;52.376;8.990;2023-07-31T08:27:06;100430.81;;;17.79;100.00
6974;BME280;3527;52.376;8.990;2023-07-31T08:29:33;100434.22;;;17.67;100.00
6974;BME280;3527;52.376;8.990;2023-07-31T08:32:05;100428.59;;;17.67;100.00
6974;BME280;3527;52.376;8.990;2023-07-31T08:34:33;100436.31;;;17.89;100.00
6974;BME280;3527;52.376;8.990;2023-07-31T08:37:20;100441.53;;;18.14;100.00
6974;BME280;3527;52.376;8.990;2023-07-31T08:40:53;100435.00;;;18.17;100.00
6974;BME280;3527;52.376;8.990;2023-07-31T08:43:28;100428.63;;;18.13;100.00
6974;BME280;3527;52.376;8.990;2023-07-31T08:46:57;100429.94;;;18.29;100.00
6974;BME280;3527;52.376;8.990;2023-07-31T08:49:27;100420.69;;;18.05;100.00
6974;BME280;3527;52.376;8.990;2023-07-31T08:51:54;100421.47;;;18.05;100.00
6974;BME280;3527;52.376;8.990;2023-07-31T08:54:22;100418.13;;;17.90;100.00
6974;BME280;3527;52.376;8.990;2023-07-31T08:56:53;100429.13;;;17.85;100.00
6974;BME280;3527;52.376;8.990;2023-07-31T08:59:24;100423.91;;;17.83;100.00
6974;BME280;3527;52.376;8.990;2023-07-31T09:02:08;100410.03;;;17.66;100.00
6974;BME280;3527;52.376;8.990;2023-07-31T09:04:44;100404.13;;;17.83;100.00
6974;BME280;3527;52.376;8.990;2023-07-31T09:07:13;100403.06;;;17.97;100.00
6974;BME280;3527;52.376;8.990;2023-07-31T09:09:42;100395.81;;;17.96;100.00
6974;BME280;3527;52.376;8.990;2023-07-31T09:12:09;100396.75;;;17.89;100.00
6974;BME280;3527;52.376;8.990;2023-07-31T09:14:37;100402.22;;;17.77;100.00
6974;BME280;3527;52.376;8.990;2023-07-31T09:17:05;100408.84;;;17.90;100.00
6974;BME280;3527;52.376;8.990;2023-07-31T09:19:34;100403.69;;;18.08;100.00
6974;BME280;3527;52.376;8.990;2023-07-31T09:22:07;100405.34;;;18.06;100.00
6974;BME280;3527;52.376;8.990;2023-07-31T09:24:37;100404.22;;;18.23;100.00
6974;BME280;3527;52.376;8.990;2023-07-31T09:27:06;100393.38;;;18.41;100.00
6974;BME280;3527;52.376;8.990;2023-07-31T09:29:45;100399.94;;;18.35;100.00
6974;BME280;3527;52.376;8.990;2023-07-31T09:32:49;100391.03;;;18.16;100.00
6974;BME280;3527;52.376;8.990;2023-07-31T09:35:33;100390.59;;;18.18;100.00
6974;BME280;3527;52.376;8.990;2023-07-31T09:38:19;100388.19;;;18.16;100.00
6974;BME280;3527;52.376;8.990;2023-07-31T09:40:50;100401.97;;;18.34;100.00
6974;BME280;3527;52.376;8.990;2023-07-31T09:43:19;100378.28;;;18.48;100.00
6974;BME280;3527;52.376;8.990;2023-07-31T09:45:47;100384.44;;;18.82;100.00
6974;BME280;3527;52.376;8.990;2023-07-31T09:48:18;100379.09;;;18.68;100.00
6974;BME280;3527;52.376;8.990;2023-07-31T09:50:48;100365.75;;;18.49;100.00
6974;BME280;3527;52.376;8.990;2023-07-31T09:53:16;100368.19;;;18.87;100.00
6974;BME280;3527;52.376;8.990;2023-07-31T09:55:44;100369.78;;;18.88;100.00
6974;BME280;3527;52.376;8.990;2023-07-31T09:58:12;100365.72;;;18.89;100.00
6974;BME280;3527;52.376;8.990;2023-07-31T10:00:40;100357.63;;;19.07;100.00
6974;BME280;3527;52.376;8.990;2023-07-31T10:03:10;100354.25;;;18.96;100.00
6974;BME280;3527;52.376;8.990;2023-07-31T10:05:40;100352.66;;;18.95;100.00
6974;BME280;3527;52.376;8.990;2023-07-31T10:08:09;100344.19;;;18.95;100.00
6974;BME280;3527;52.376;8.990;2023-07-31T10:10:41;100354.44;;;19.05;100.00
6974;BME280;3527;52.376;8.990;2023-07-31T10:13:09;100348.06;;;19.01;100.00
6974;BME280;3527;52.376;8.990;2023-07-31T10:15:36;100344.56;;;19.29;100.00
6974;BME280;3527;52.376;8.990;2023-07-31T10:18:07;100356.31;;;19.11;100.00
6974;BME280;3527;52.376;8.990;2023-07-31T10:20:35;100347.56;;;19.38;100.00
6974;BME280;3527;52.376;8.990;2023-07-31T10:23:03;100335.63;;;19.31;100.00
6974;BME280;3527;52.376;8.990;2023-07-31T10:25:31;100323.41;;;19.01;100.00
6974;BME280;3527;52.376;8.990;2023-07-31T10:28:09;100332.88;;;19.11;100.00
6974;BME280;3527;52.376;8.990;2023-07-31T10:30:39;100331.47;;;19.19;100.00
6974;BME280;3527;52.376;8.990;2023-07-31T10:33:10;100337.06;;;19.23;100.00
6974;BME280;3527;52.376;8.990;2023-07-31T10:35:39;100320.50;;;19.05;100.00
6974;BME280;3527;52.376;8.990;2023-07-31T10:38:17;100333.44;;;19.22;100.00
6974;BME280;3527;52.376;8.990;2023-07-31T10:40:44;100330.44;;;19.45;100.00
6974;BME280;3527;52.376;8.990;2023-07-31T10:43:24;100324.97;;;19.55;100.00
6974;BME280;3527;52.376;8.990;2023-07-31T10:45:55;100319.97;;;19.42;100.00
6974;BME280;3527;52.376;8.990;2023-07-31T10:48:22;100332.53;;;19.25;100.00
6974;BME280;3527;52.376;8.990;2023-07-31T10:50:55;100312.81;;;19.22;100.00
6974;BME280;3527;52.376;8.990;2023-07-31T10:53:28;100315.69;;;18.86;100.00
6974;BME280;3527;52.376;8.990;2023-07-31T10:56:00;100307.97;;;18.70;100.00
6974;BME280;3527;52.376;8.990;2023-07-31T10:58:27;100316.81;;;18.72;100.00
6974;BME280;3527;52.376;8.990;2023-07-31T11:00:59;100313.47;;;18.77;100.00
6974;BME280;3527;52.376;8.990;2023-07-31T11:03:40;100314.78;;;18.89;100.00
6974;BME280;3527;52.376;8.990;2023-07-31T11:06:10;100304.44;;;18.82;100.00
6974;BME280;3527;52.376;8.990;2023-07-31T11:08:47;100313.41;;;18.97;100.00
6974;BME280;3527;52.376;8.990;2023-07-31T11:11:17;100318.38;;;19.25;100.00
6974;BME280;3527;52.376;8.990;2023-07-31T11:13:49;100315.00;;;19.14;100.00
6974;BME280;3527;52.376;8.990;2023-07-31T11:16:18;100293.91;;;18.66;100.00
6974;BME280;3527;52.376;8.990;2023-07-31T11:18:46;100316.19;;;18.80;100.00
6974;BME280;3527;52.376;8.990;2023-07-31T11:21:16;100310.97;;;18.63;100.00
6974;BME280;3527;52.376;8.990;2023-07-31T11:24:00;100309.34;;;18.42;100.00
6974;BME280;3527;52.376;8.990;2023-07-31T11:26:27;100308.94;;;18.63;100.00
6974;BME280;3527;52.376;8.990;2023-07-31T11:28:54;100300.56;;;18.56;100.00
6974;BME280;3527;52.376;8.990;2023-07-31T11:31:21;100312.81;;;18.69;100.00
6974;BME280;3527;52.376;8.990;2023-07-31T11:33:49;100313.09;;;18.55;100.00
6974;BME280;3527;52.376;8.990;2023-07-31T11:36:20;100303.91;;;18.71;100.00
6974;BME280;3527;52.376;8.990;2023-07-31T11:38:47;100296.22;;;18.51;100.00
6974;BME280;3527;52.376;8.990;2023-07-31T11:41:16;100301.25;;;18.80;100.00
6974;BME280;3527;52.376;8.990;2023-07-31T11:43:45;100291.88;;;18.67;100.00
6974;BME280;3527;52.376;8.990;2023-07-31T11:46:13;100302.78;;;18.84;100.00
6974;BME280;3527;52.376;8.990;2023-07-31T11:48:42;100291.66;;;19.10;100.00
6974;BME280;3527;52.376;8.990;2023-07-31T11:51:10;100301.06;;;19.56;100.00
6974;BME280;3527;52.376;8.990;2023-07-31T11:54:12;100295.03;;;19.37;100.00
6974;BME280;3527;52.376;8.990;2023-07-31T11:56:40;100284.31;;;19.29;100.00
6974;BME280;3527;52.376;8.990;2023-07-31T11:59:08;100290.22;;;19.67;100.00
6974;BME280;3527;52.376;8.990;2023-07-31T12:01:36;100285.53;;;20.05;100.00
6974;BME280;3527;52.376;8.990;2023-07-31T12:04:03;100276.72;;;19.58;100.00
6974;BME280;3527;52.376;8.990;2023-07-31T12:06:34;100279.47;;;19.45;100.00
6974;BME280;3527;52.376;8.990;2023-07-31T12:09:04;100284.06;;;19.56;100.00
6974;BME280;3527;52.376;8.990;2023-07-31T12:11:45;100271.56;;;19.37;100.00
6974;BME280;3527;52.376;8.990;2023-07-31T12:14:24;100283.28;;;19.55;100.00
6974;BME280;3527;52.376;8.990;2023-07-31T12:16:59;100279.09;;;19.60;100.00
6974;BME280;3527;52.376;8.990;2023-07-31T12:19:26;100269.56;;;19.21;100.00
6974;BME280;3527;52.376;8.990;2023-07-31T12:22:01;100270.69;;;19.40;100.00
6974;BME280;3527;52.376;8.990;2023-07-31T12:24:28;100271.97;;;19.23;100.00
6974;BME280;3527;52.376;8.990;2023-07-31T12:26:54;100259.94;;;19.19;100.00
6974;BME280;3527;52.376;8.990;2023-07-31T12:29:21;100265.66;;;19.15;100.00
6974;BME280;3527;52.376;8.990;2023-07-31T12:31:48;100262.63;;;19.38;100.00
6974;BME280;3527;52.376;8.990;2023-07-31T12:34:16;100265.09;;;19.69;100.00
6974;BME280;3527;52.376;8.990;2023-07-31T12:36:44;100250.09;;;19.56;100.00
6974;BME280;3527;52.376;8.990;2023-07-31T12:39:12;100255.44;;;19.66;100.00
6974;BME280;3527;52.376;8.990;2023-07-31T12:41:38;100260.22;;;19.98;100.00
6974;BME280;3527;52.376;8.990;2023-07-31T12:44:05;100258.19;;;19.70;100.00
6974;BME280;3527;52.376;8.990;2023-07-31T12:46:33;100250.22;;;19.65;100.00
6974;BME280;3527;52.376;8.990;2023-07-31T12:49:00;100250.41;;;19.74;100.00
6974;BME280;3527;52.376;8.990;2023-07-31T12:51:27;100258.22;;;20.12;100.00
6974;BME280;3527;52.376;8.990;2023-07-31T12:53:54;100254.63;;;20.24;100.00
6974;BME280;3527;52.376;8.990;2023-07-31T12:56:21;100254.88;;;20.29;100.00
6974;BME280;3527;52.376;8.990;2023-07-31T12:58:48;100238.31;;;20.28;100.00
6974;BME280;3527;52.376;8.990;2023-07-31T13:01:14;100236.16;;;19.90;100.00
6974;BME280;3527;52.376;8.990;2023-07-31T13:03:44;100237.72;;;19.79;100.00
6974;BME280;3527;52.376;8.990;2023-07-31T13:06:11;100249.03;;;20.08;100.00
6974;BME280;3527;52.376;8.990;2023-07-31T13:08:38;100254.97;;;19.84;100.00
6974;BME280;3527;52.376;8.990;2023-07-31T13:11:05;100251.88;;;20.08;100.00
6974;BME280;3527;52.376;8.990;2023-07-31T13:13:32;100245.44;;;19.78;100.00
6974;BME280;3527;52.376;8.990;2023-07-31T13:15:59;100255.72;;;20.01;100.00
6974;BME280;3527;52.376;8.990;2023-07-31T13:18:26;100254.66;;;19.95;100.00
6974;BME280;3527;52.376;8.990;2023-07-31T13:20:53;100249.31;;;19.84;100.00
6974;BME280;3527;52.376;8.990;2023-07-31T13:23:20;100247.13;;;19.75;100.00
6974;BME280;3527;52.376;8.990;2023-07-31T13:25:46;100240.34;;;19.57;100.00
6974;BME280;3527;52.376;8.990;2023-07-31T13:28:13;100258.34;;;19.79;100.00
6974;BME280;3527;52.376;8.990;2023-07-31T13:30:41;100244.13;;;19.66;100.00
6974;BME280;3527;52.376;8.990;2023-07-31T13:33:08;100253.84;;;19.65;100.00